Time;durP1;ratioP1;P1;durP2;ratioP2;P2;SDS_P1;SDS_P2;PMS_P1;PMS_P2;Temp;Humidity;BMP_temperature;BMP_pressure;BME280_temperature;BME280_humidity;BME280_pressure;Samples;Min_cycle;Max_cycle;Signal;HPM_P1;HPM_P2
2022/12/29 00:00:00;;;;;;;2.95;2.00;;;;;;;10.19;100.00;99719.44;5053470;28;20025;-73
2022/12/29 00:02:26;;;;;;;3.47;2.30;;;;;;;10.19;100.00;99719.44;5039605;28;20503;-72
2022/12/29 00:04:51;;;;;;;10.55;2.17;;;;;;;10.23;100.00;99705.41;5050697;28;20025;-71
2022/12/29 00:07:17;;;;;;;2.78;1.98;;;;;;;10.24;100.00;99701.88;5053805;28;20099;-73
2022/12/29 00:09:43;;;;;;;2.85;1.70;;;;;;;10.28;100.00;99708.91;5051525;28;20378;-71
2022/12/29 00:12:08;;;;;;;2.38;1.65;;;;;;;10.32;100.00;99691.38;5051985;28;20027;-71
2022/12/29 00:17:17;;;;;;;;;;;;;;;10.34;100.00;99693.13;5051437;28;20143;-72
2022/12/29 00:36:17;;;;;;;2.92;1.77;;;;;;;10.41;100.00;99655.44;5048943;28;20031;-72
2022/12/29 00:44:16;;;;;;;4.88;1.58;;;;;;;10.45;100.00;99649.31;5035385;28;20052;-71
2022/12/29 00:46:43;;;;;;;3.35;1.85;;;;;;;10.40;100.00;99650.19;5048941;28;20748;-72
2022/12/29 00:49:30;;;;;;;3.97;1.15;;;;;;;10.39;100.00;99653.69;5050942;28;20048;-73
2022/12/29 00:51:57;;;;;;;2.45;1.38;;;;;;;10.36;100.00;99638.81;5050746;28;20499;-73
2022/12/29 00:54:22;;;;;;;2.42;1.25;;;;;;;10.34;100.00;99653.69;5052808;28;20033;-72
2022/12/29 00:56:49;;;;;;;3.45;1.50;;;;;;;10.33;100.00;99644.03;5052516;28;20034;-71
2022/12/29 00:59:15;;;;;;;4.85;1.17;;;;;;;10.31;100.00;99645.81;5050988;28;20040;-72
2022/12/29 01:01:41;;;;;;;9.95;1.45;;;;;;;10.25;100.00;99645.81;5057081;28;20032;-73
2022/12/29 01:04:08;;;;;;;2.65;1.20;;;;;;;10.19;100.00;99646.69;5053957;28;20056;-73
2022/12/29 01:06:36;;;;;;;1.90;1.40;;;;;;;10.16;100.00;99644.09;5058713;28;20076;-73
2022/12/29 01:11:47;;;;;;;1.35;1.13;;;;;;;10.17;100.00;99661.59;5050545;28;20096;-71
2022/12/29 01:14:12;;;;;;;2.83;1.05;;;;;;;10.20;100.00;99658.97;5050496;28;20021;-72
2022/12/29 01:16:37;;;;;;;2.45;1.10;;;;;;;10.21;100.00;99649.31;5051420;28;20392;-72
2022/12/29 01:19:03;;;;;;;1.30;1.20;;;;;;;10.27;100.00;99684.38;5050354;28;20031;-72
2022/12/29 01:21:29;;;;;;;3.28;1.15;;;;;;;10.30;100.00;99670.34;5054758;28;20028;-73
2022/12/29 01:23:54;;;;;;;4.00;0.90;;;;;;;10.27;100.00;99658.06;5056780;28;20029;-71
2022/12/29 01:26:20;;;;;;;1.23;0.80;;;;;;;10.29;100.00;99679.09;5046547;28;20029;-71
2022/12/29 01:28:46;;;;;;;2.03;0.90;;;;;;;10.28;100.00;99661.56;5036790;28;20037;-72
2022/12/29 01:31:13;;;;;;;1.80;1.42;;;;;;;10.27;100.00;99665.97;5045493;28;20064;-73
2022/12/29 01:33:39;;;;;;;4.43;1.10;;;;;;;10.26;100.00;99665.97;5048038;28;20048;-72
2022/12/29 01:36:07;;;;;;;2.08;1.20;;;;;;;10.22;100.00;99656.34;5038363;28;20523;-72
2022/12/29 01:38:34;;;;;;;2.60;0.90;;;;;;;10.23;100.00;99655.47;5044837;28;20069;-72
2022/12/29 01:41:00;;;;;;;6.97;1.70;;;;;;;10.17;100.00;99652.84;5034157;28;20096;-71
2022/12/29 01:43:43;;;;;;;1.83;1.30;;;;;;;10.16;100.00;99636.19;5032581;28;20121;-71
2022/12/29 01:46:20;;;;;;;1.70;1.20;;;;;;;10.13;100.00;99637.06;5050494;28;20079;-73
2022/12/29 01:48:48;;;;;;;2.67;1.30;;;;;;;10.09;100.00;99647.56;5051057;28;20119;-72
2022/12/29 01:51:16;;;;;;;7.97;1.55;;;;;;;10.06;100.00;99645.81;5051191;28;20029;-72
2022/12/29 01:53:43;;;;;;;3.25;1.10;;;;;;;10.02;100.00;99667.72;5050126;28;20037;-72
2022/12/29 01:56:11;;;;;;;2.17;1.40;;;;;;;10.06;100.00;99642.31;5049713;28;20389;-72
2022/12/29 01:58:42;;;;;;;7.38;1.38;;;;;;;10.06;100.00;99677.38;5042597;28;20107;-72
2022/12/29 02:01:08;;;;;;;5.10;1.30;;;;;;;10.06;100.00;99658.09;5046677;28;20107;-71
2022/12/29 02:03:35;;;;;;;3.05;0.90;;;;;;;10.02;100.00;99667.72;5049376;28;20572;-73
2022/12/29 02:06:09;;;;;;;5.07;1.27;;;;;;;10.03;100.00;99674.75;5045819;28;20090;-72
2022/12/29 02:08:37;;;;;;;3.90;1.20;;;;;;;10.01;100.00;99673.88;5049576;28;20124;-74
2022/12/29 02:11:03;;;;;;;9.68;1.88;;;;;;;10.03;100.00;99674.75;5047331;28;20096;-73
2022/12/29 02:13:31;;;;;;;4.13;1.33;;;;;;;10.05;100.00;99670.38;5045971;28;20031;-72
2022/12/29 02:16:16;;;;;;;4.72;1.00;;;;;;;10.07;100.00;99660.72;5049139;28;20021;-72
2022/12/29 02:18:54;;;;;;;7.07;1.27;;;;;;;10.03;100.00;99671.25;5046955;28;20380;-72
2022/12/29 02:21:46;;;;;;;5.78;0.88;;;;;;;9.99;100.00;99667.72;5049806;28;20028;-73
2022/12/29 02:24:20;;;;;;;4.47;1.00;;;;;;;9.93;100.00;99665.13;5048354;28;20053;-72
2022/12/29 02:27:00;;;;;;;3.33;0.82;;;;;;;9.88;100.00;99672.13;5052670;28;20060;-72
2022/12/29 02:30:04;;;;;;;7.97;1.42;;;;;;;9.80;100.00;99672.09;5043999;28;20029;-72
2022/12/29 02:32:44;;;;;;;8.40;1.17;;;;;;;9.63;100.00;99658.97;4964274;28;20042;-72
2022/12/29 02:35:24;;;;;;;4.10;1.10;;;;;;;9.48;100.00;99664.19;4967668;28;20041;-73
2022/12/29 02:37:55;;;;;;;6.63;1.20;;;;;;;9.33;100.00;99681.66;5020230;28;20047;-72
2022/12/29 02:40:30;;;;;;;6.07;1.50;;;;;;;9.25;100.00;99665.00;5050341;28;20445;-72
2022/12/29 02:43:06;;;;;;;7.65;1.20;;;;;;;9.19;100.00;99665.00;5051323;28;20033;-73
2022/12/29 02:45:49;;;;;;;7.13;1.23;;;;;;;9.07;100.00;99664.06;5052886;28;20481;-73
2022/12/29 02:48:33;;;;;;;11.05;1.70;;;;;;;9.05;100.00;99652.69;5049699;28;20036;-72
2022/12/29 02:51:12;;;;;;;6.68;1.63;;;;;;;8.98;100.00;99656.19;5051759;28;20024;-72
2022/12/29 02:56:22;;;;;;;5.57;1.23;;;;;;;8.96;100.00;99642.16;5052709;28;20098;-73
2022/12/29 02:58:48;;;;;;;13.23;2.13;;;;;;;8.96;100.00;99636.91;5052059;28;20033;-73
2022/12/29 03:01:37;;;;;;;16.10;2.13;;;;;;;8.99;100.00;99651.81;5054477;28;20036;-73
2022/12/29 03:04:31;;;;;;;12.40;1.52;;;;;;;9.08;100.00;99651.84;5039949;28;20558;-71
2022/12/29 03:07:17;;;;;;;10.30;1.83;;;;;;;9.09;100.00;99643.09;5051479;28;20032;-73
2022/12/29 03:10:10;;;;;;;9.32;1.35;;;;;;;9.01;100.00;99666.69;5052205;28;20020;-72
2022/12/29 03:18:57;;;;;;;17.20;2.17;;;;;;;8.88;100.00;99644.75;5050161;28;20036;-73
2022/12/29 03:24:21;;;;;;;7.00;1.42;;;;;;;8.87;100.00;99644.75;5052714;28;20119;-73
2022/12/29 03:26:49;;;;;;;16.00;1.60;;;;;;;8.87;100.00;99623.75;5051530;28;20028;-74
2022/12/29 03:29:17;;;;;;;11.45;1.85;;;;;;;8.91;100.00;99630.78;5049560;28;20053;-74
2022/12/29 03:31:44;;;;;;;9.48;1.48;;;;;;;9.00;100.00;99633.44;5050120;28;20028;-72
2022/12/29 03:34:11;;;;;;;8.80;1.35;;;;;;;9.11;100.00;99621.25;5050885;28;20017;-73
2022/12/29 03:36:50;;;;;;;9.07;1.63;;;;;;;9.13;100.00;99622.97;5050669;28;20051;-74
2022/12/29 03:39:18;;;;;;;10.10;1.77;;;;;;;9.18;100.00;99626.50;5051627;28;20036;-73
2022/12/29 03:41:45;;;;;;;7.97;1.10;;;;;;;9.18;100.00;99631.75;5052196;28;20390;-73
2022/12/29 03:44:12;;;;;;;6.43;1.40;;;;;;;9.25;100.00;99628.25;5046056;28;20241;-71
2022/12/29 03:46:38;;;;;;;3.72;1.33;;;;;;;9.37;100.00;99659.81;5051607;28;20032;-72
2022/12/29 03:49:03;;;;;;;7.40;1.40;;;;;;;9.43;100.00;99649.28;5046388;28;20472;-74
2022/12/29 03:51:28;;;;;;;7.97;1.02;;;;;;;9.43;100.00;99637.94;5049807;28;20021;-74
2022/12/29 03:53:54;;;;;;;10.77;1.80;;;;;;;9.41;100.00;99651.06;5052054;28;20405;-72
2022/12/29 03:56:19;;;;;;;6.40;1.25;;;;;;;9.41;100.00;99635.31;5050976;28;20025;-72
2022/12/29 03:58:44;;;;;;;10.15;1.95;;;;;;;9.38;100.00;99644.91;5048858;28;20496;-73
2022/12/29 04:01:10;;;;;;;7.05;1.40;;;;;;;9.39;100.00;99642.28;5051115;28;20048;-73
2022/12/29 04:03:35;;;;;;;6.82;1.23;;;;;;;9.36;100.00;99655.41;5051135;28;20045;-71
2022/12/29 04:06:00;;;;;;;6.88;1.35;;;;;;;9.40;100.00;99648.41;5046516;28;20017;-72
2022/12/29 04:08:26;;;;;;;13.38;1.73;;;;;;;9.42;100.00;99668.53;5049578;28;20033;-72
2022/12/29 04:10:51;;;;;;;7.88;1.60;;;;;;;9.43;100.00;99665.06;5051530;28;20021;-73
2022/12/29 04:13:16;;;;;;;12.02;1.55;;;;;;;9.44;100.00;99671.16;5049425;28;20051;-72
2022/12/29 04:15:43;;;;;;;18.05;2.40;;;;;;;9.42;100.00;99663.28;5051736;28;20016;-72
2022/12/29 04:18:08;;;;;;;11.27;1.52;;;;;;;9.35;100.00;99664.16;5054041;28;20348;-73
2022/12/29 04:23:18;;;;;;;;;;;;;;;9.24;100.00;99664.13;5052051;28;20040;-71
2022/12/29 04:25:47;;;;;;;8.65;1.70;;;;;;;9.22;100.00;99667.63;5050175;28;20304;-73
2022/12/29 04:28:12;;;;;;;21.17;2.85;;;;;;;9.21;100.00;99663.22;5049644;28;20048;-73
2022/12/29 04:30:37;;;;;;;15.93;1.90;;;;;;;9.15;100.00;99678.97;5051358;28;20060;-72
2022/12/29 04:33:03;;;;;;;18.73;2.25;;;;;;;9.17;100.00;99671.97;5052308;28;20017;-71
2022/12/29 04:35:28;;;;;;;5.90;1.38;;;;;;;9.16;100.00;99672.88;5047739;28;20017;-72
2022/12/29 04:37:53;;;;;;;16.13;2.05;;;;;;;9.05;100.00;99657.94;5053567;28;20025;-72
2022/12/29 04:40:19;;;;;;;9.13;1.23;;;;;;;8.88;100.00;99665.75;5049894;28;20059;-71
2022/12/29 04:42:44;;;;;;;13.63;1.77;;;;;;;8.74;100.00;99670.94;5048152;28;20100;-72
2022/12/29 04:45:10;;;;;;;14.05;1.60;;;;;;;8.68;100.00;99672.63;5047180;28;20025;-71
2022/12/29 04:47:35;;;;;;;6.00;1.35;;;;;;;8.58;100.00;99664.72;5052894;28;21021;-72
2022/12/29 04:50:00;;;;;;;5.72;1.45;;;;;;;8.53;100.00;99679.56;5050622;28;20028;-72
2022/12/29 04:52:26;;;;;;;9.70;1.35;;;;;;;8.56;100.00;99681.31;5048363;28;20025;-71
2022/12/29 04:54:51;;;;;;;6.03;1.17;;;;;;;8.55;100.00;99679.56;5051515;28;20052;-72
2022/12/29 04:57:16;;;;;;;11.20;1.45;;;;;;;8.62;100.00;99668.25;5052358;28;20112;-73
2022/12/29 04:59:42;;;;;;;10.73;1.38;;;;;;;8.68;100.00;99676.16;5054230;28;20020;-73
2022/12/29 05:02:07;;;;;;;11.93;1.40;;;;;;;8.69;100.00;99669.16;5048564;28;20053;-73
2022/12/29 05:04:32;;;;;;;10.65;2.00;;;;;;;8.69;100.00;99679.66;5051757;28;20025;-72
2022/12/29 05:06:58;;;;;;;10.18;1.65;;;;;;;8.68;100.00;99685.75;5048207;28;20040;-72
2022/12/29 05:09:23;;;;;;;22.42;2.40;;;;;;;8.70;100.00;99698.00;5053056;28;20021;-71
2022/12/29 05:11:49;;;;;;;12.07;1.80;;;;;;;8.73;100.00;99692.78;5049682;28;20021;-72
2022/12/29 05:14:14;;;;;;;12.93;1.88;;;;;;;8.77;100.00;99705.03;5053339;28;20415;-71
2022/12/29 05:16:40;;;;;;;11.40;2.35;;;;;;;8.82;100.00;99698.94;5049799;28;20033;-72
2022/12/29 05:19:05;;;;;;;15.05;2.42;;;;;;;8.77;100.00;99697.16;5053987;28;20028;-73
2022/12/29 05:21:30;;;;;;;5.15;1.52;;;;;;;8.75;100.00;99712.03;5048032;28;20025;-72
2022/12/29 05:23:56;;;;;;;16.15;2.70;;;;;;;8.79;100.00;99702.44;5050146;28;20037;-72
2022/12/29 05:26:21;;;;;;;10.00;1.40;;;;;;;8.76;100.00;99698.06;5049787;28;20028;-72
2022/12/29 05:28:46;;;;;;;11.32;2.25;;;;;;;8.75;100.00;99693.66;5050573;28;20045;-73
2022/12/29 05:31:12;;;;;;;13.85;2.67;;;;;;;8.73;100.00;99691.91;5046896;28;20017;-73
2022/12/29 05:33:37;;;;;;;14.10;2.10;;;;;;;8.75;100.00;99691.06;5047508;28;20021;-73
2022/12/29 05:36:08;;;;;;;19.33;2.15;;;;;;;8.77;100.00;99697.16;5049630;28;20025;-72
2022/12/29 05:38:34;;;;;;;11.85;2.28;;;;;;;8.77;100.00;99697.16;5049279;28;20034;-72
2022/12/29 05:40:59;;;;;;;12.98;2.08;;;;;;;8.80;100.00;99703.31;5052936;28;20100;-71
2022/12/29 05:43:25;;;;;;;12.43;1.85;;;;;;;8.83;100.00;99703.31;5050453;28;20120;-72
2022/12/29 05:45:51;;;;;;;14.02;2.42;;;;;;;8.80;100.00;99709.41;5049738;28;20016;-71
2022/12/29 05:48:16;;;;;;;15.70;2.22;;;;;;;8.73;100.00;99711.13;5048808;28;20033;-72
2022/12/29 05:50:42;;;;;;;13.07;2.17;;;;;;;8.70;100.00;99718.13;5050185;28;20427;-72
2022/12/29 05:53:07;;;;;;;17.73;2.05;;;;;;;8.68;100.00;99715.50;5046868;28;20013;-73
2022/12/29 05:55:33;;;;;;;18.08;2.65;;;;;;;8.52;100.00;99714.50;5049653;28;20074;-73
2022/12/29 05:57:59;;;;;;;19.52;2.65;;;;;;;8.41;100.00;99716.13;5048185;28;20017;-72
2022/12/29 06:00:24;;;;;;;16.85;1.85;;;;;;;8.36;100.00;99723.97;5044700;28;20040;-72
2022/12/29 06:02:49;;;;;;;17.20;2.78;;;;;;;8.34;100.00;99720.47;5048599;28;20606;-72
2022/12/29 06:05:15;;;;;;;25.05;2.58;;;;;;;8.29;100.00;99722.19;5052756;28;20059;-73
2022/12/29 06:07:40;;;;;;;19.52;2.70;;;;;;;8.27;100.00;99729.16;5048632;28;20017;-73
2022/12/29 06:10:06;;;;;;;21.90;2.63;;;;;;;8.22;100.00;99720.38;5050016;28;20028;-72
2022/12/29 06:12:32;;;;;;;16.50;2.50;;;;;;;8.20;100.00;99732.59;5054448;28;20035;-73
2022/12/29 06:14:57;;;;;;;14.45;2.97;;;;;;;8.16;100.00;99722.94;5053989;28;20021;-72
2022/12/29 06:17:22;;;;;;;17.08;2.75;;;;;;;8.20;100.00;99729.97;5050002;28;20028;-72
2022/12/29 06:19:48;;;;;;;16.00;1.88;;;;;;;8.24;100.00;99730.00;5053061;28;20021;-72
2022/12/29 06:22:13;;;;;;;17.15;2.63;;;;;;;8.28;100.00;99730.91;5050913;28;20480;-72
2022/12/29 06:24:39;;;;;;;17.35;2.55;;;;;;;8.31;100.00;99728.31;5053819;28;20017;-72
2022/12/29 06:27:04;;;;;;;13.68;1.80;;;;;;;8.36;100.00;99723.13;5054261;28;20073;-73
2022/12/29 06:29:29;;;;;;;16.10;2.33;;;;;;;8.36;100.00;99742.31;5052458;28;20043;-72
2022/12/29 06:31:57;;;;;;;12.40;2.08;;;;;;;8.42;100.00;99750.25;5052041;28;20037;-72
2022/12/29 06:34:25;;;;;;;25.08;2.67;;;;;;;8.44;100.00;99738.00;5050454;28;20108;-71
2022/12/29 06:36:51;;;;;;;13.88;2.20;;;;;;;8.41;100.00;99738.00;5054190;28;20491;-73
2022/12/29 06:39:16;;;;;;;15.63;2.00;;;;;;;8.37;100.00;99740.56;5053749;28;20139;-72
2022/12/29 06:41:41;;;;;;;15.70;2.05;;;;;;;8.42;100.00;99731.91;5052467;28;20029;-72
2022/12/29 06:44:07;;;;;;;16.45;2.50;;;;;;;8.55;100.00;99746.00;5054091;28;20017;-72
2022/12/29 06:46:32;;;;;;;16.15;2.15;;;;;;;8.57;100.00;99740.75;5053477;28;20031;-72
2022/12/29 06:48:58;;;;;;;21.40;2.33;;;;;;;8.63;100.00;99748.69;5051581;28;20480;-71
2022/12/29 06:51:23;;;;;;;18.50;2.33;;;;;;;8.56;100.00;99736.38;5052391;28;20495;-72
2022/12/29 06:53:48;;;;;;;24.13;2.75;;;;;;;8.50;100.00;99741.59;5052977;28;20017;-72
2022/12/29 06:56:14;;;;;;;24.65;2.92;;;;;;;8.46;100.00;99735.44;5053007;28;20028;-72
2022/12/29 06:58:39;;;;;;;16.95;2.13;;;;;;;8.42;100.00;99739.75;5051729;28;20074;-72
2022/12/29 07:01:04;;;;;;;21.58;2.30;;;;;;;8.37;100.00;99754.56;5052458;28;20048;-72
2022/12/29 07:03:30;;;;;;;21.35;2.67;;;;;;;8.39;100.00;99747.59;5047589;28;20042;-73
2022/12/29 07:05:57;;;;;;;15.18;1.80;;;;;;;8.34;100.00;99757.19;5053390;28;20065;-72
2022/12/29 07:08:23;;;;;;;13.48;2.20;;;;;;;8.37;100.00;99759.81;5049607;28;20056;-71
2022/12/29 07:10:48;;;;;;;28.95;3.00;;;;;;;8.41;100.00;99758.06;5051410;28;20139;-71
2022/12/29 07:13:13;;;;;;;12.20;2.05;;;;;;;8.48;100.00;99754.69;5053477;28;20074;-71
2022/12/29 07:15:39;;;;;;;8.75;1.80;;;;;;;8.54;100.00;99769.59;5053568;28;20025;-71
2022/12/29 07:18:04;;;;;;;12.85;2.33;;;;;;;8.57;100.00;99748.63;5052646;28;20443;-71
2022/12/29 07:20:30;;;;;;;17.02;3.30;;;;;;;8.58;100.00;99766.13;5052430;28;20024;-72
2022/12/29 07:22:56;;;;;;;8.18;1.98;;;;;;;8.59;100.00;99762.63;5050817;28;20123;-72
2022/12/29 07:25:22;;;;;;;9.88;2.88;;;;;;;8.60;100.00;99765.25;5053895;28;20025;-72
2022/12/29 07:27:48;;;;;;;17.83;2.25;;;;;;;8.61;100.00;99755.63;5047482;28;20029;-73
2022/12/29 07:30:14;;;;;;;9.80;2.20;;;;;;;8.63;100.00;99769.66;5050054;28;20058;-71
2022/12/29 07:32:39;;;;;;;13.45;2.30;;;;;;;8.63;100.00;99756.53;5052167;28;20063;-72
2022/12/29 07:35:05;;;;;;;14.35;1.92;;;;;;;8.63;100.00;99758.25;5047458;28;20082;-72
2022/12/29 07:37:30;;;;;;;22.00;2.47;;;;;;;8.64;100.00;99754.78;5049933;28;20029;-71
2022/12/29 07:39:56;;;;;;;14.75;2.30;;;;;;;8.67;100.00;99749.56;5052878;28;20086;-73
2022/12/29 07:42:21;;;;;;;12.63;2.05;;;;;;;8.76;100.00;99776.75;5051771;28;20067;-71
2022/12/29 07:44:46;;;;;;;15.27;1.90;;;;;;;8.78;100.00;99751.38;5052864;28;20115;-72
2022/12/29 07:47:12;;;;;;;16.45;2.35;;;;;;;8.75;100.00;99764.50;5054727;28;20549;-73
2022/12/29 07:49:37;;;;;;;23.50;2.97;;;;;;;8.78;100.00;99764.50;5051308;28;20128;-72
2022/12/29 07:52:02;;;;;;;25.83;2.75;;;;;;;8.87;100.00;99745.34;5050955;28;20389;-72
2022/12/29 07:54:28;;;;;;;17.40;2.30;;;;;;;8.87;100.00;99768.03;5044573;28;20559;-72
2022/12/29 07:56:53;;;;;;;23.38;2.85;;;;;;;8.84;100.00;99768.91;5052165;28;20191;-72
2022/12/29 07:59:19;;;;;;;17.00;2.50;;;;;;;8.80;100.00;99750.53;5050522;28;20032;-72
2022/12/29 08:01:44;;;;;;;18.95;3.28;;;;;;;8.82;100.00;99775.00;5049317;28;20029;-71
2022/12/29 08:04:10;;;;;;;20.02;2.55;;;;;;;8.72;100.00;99759.22;5052199;28;20078;-72
2022/12/29 08:06:35;;;;;;;11.40;2.05;;;;;;;8.67;100.00;99762.66;5045061;28;20057;-71
2022/12/29 08:09:01;;;;;;;17.85;2.55;;;;;;;8.61;100.00;99776.63;5042472;28;20025;-71
2022/12/29 08:11:27;;;;;;;7.75;1.55;;;;;;;8.68;100.00;99762.72;5047965;28;20036;-72
2022/12/29 08:13:52;;;;;;;9.73;2.42;;;;;;;8.60;100.00;99764.41;5050565;28;20016;-72
2022/12/29 08:16:18;;;;;;;25.55;2.70;;;;;;;8.47;100.00;99768.66;5050655;28;20028;-71
2022/12/29 08:18:44;;;;;;;13.45;1.92;;;;;;;8.38;100.00;99769.44;5047531;28;20037;-71
2022/12/29 08:21:09;;;;;;;15.23;2.20;;;;;;;8.23;100.00;99770.19;5046732;28;20473;-72
2022/12/29 08:23:34;;;;;;;25.73;3.60;;;;;;;8.10;100.00;99777.06;5047190;28;20082;-72
2022/12/29 08:26:02;;;;;;;23.02;3.17;;;;;;;8.03;100.00;99780.47;5049698;28;20029;-72
2022/12/29 08:28:28;;;;;;;21.23;2.70;;;;;;;8.00;100.00;99785.66;5045463;28;20032;-73
2022/12/29 08:30:57;;;;;;;18.73;2.88;;;;;;;7.98;100.00;99782.19;5050489;28;20035;-72
2022/12/29 08:33:22;;;;;;;20.73;2.63;;;;;;;7.94;100.00;99778.63;5049607;28;20043;-73
2022/12/29 08:35:48;;;;;;;14.20;2.83;;;;;;;7.91;100.00;99783.00;5046518;28;20500;-72
2022/12/29 08:38:13;;;;;;;14.73;2.20;;;;;;;7.96;100.00;99806.59;5050396;28;20029;-74
2022/12/29 08:40:38;;;;;;;17.45;2.60;;;;;;;7.98;100.00;99804.88;5048389;28;20028;-73
2022/12/29 08:43:04;;;;;;;22.27;2.60;;;;;;;7.96;100.00;99794.38;5049510;28;20025;-73
2022/12/29 08:45:29;;;;;;;19.45;2.45;;;;;;;7.94;100.00;99811.81;5048147;28;20031;-72
2022/12/29 08:47:54;;;;;;;16.52;2.58;;;;;;;7.95;100.00;99821.44;5046194;28;20052;-73
2022/12/29 08:50:20;;;;;;;8.05;2.40;;;;;;;7.91;100.00;99838.88;5049177;28;20103;-75
2022/12/29 08:52:45;;;;;;;21.85;2.75;;;;;;;7.86;100.00;99843.16;5046583;28;20111;-73
2022/12/29 08:55:11;;;;;;;18.48;2.75;;;;;;;7.83;100.00;99826.56;5048165;28;20434;-75
2022/12/29 08:57:36;;;;;;;18.38;2.35;;;;;;;7.80;100.00;99837.88;5048430;28;20029;-73
2022/12/29 09:00:04;;;;;;;24.08;3.20;;;;;;;7.79;100.00;99828.25;5051078;28;20096;-75
2022/12/29 09:02:29;;;;;;;22.02;2.70;;;;;;;7.80;100.00;99843.13;5044026;28;20041;-74
2022/12/29 09:04:56;;;;;;;22.13;2.92;;;;;;;7.79;100.00;99850.94;5047123;28;20052;-76
2022/12/29 09:07:22;;;;;;;20.02;2.33;;;;;;;7.80;100.00;99842.22;5046806;28;20213;-74
2022/12/29 09:09:48;;;;;;;22.48;3.03;;;;;;;7.82;100.00;99862.31;5048754;28;20029;-76
2022/12/29 09:12:13;;;;;;;26.45;3.22;;;;;;;7.83;100.00;99858.84;5052016;28;20025;-74
2022/12/29 09:14:38;;;;;;;22.70;3.85;;;;;;;7.83;100.00;99857.97;5047667;28;21400;-75
2022/12/29 09:19:48;;;;;;;;;;;;;;;7.88;100.00;99874.59;5070771;28;20043;-75
2022/12/29 09:22:13;;;;;;;21.73;4.38;;;;;;;7.88;100.00;99866.75;5049264;28;20343;-76
2022/12/29 09:24:38;;;;;;;12.18;2.25;;;;;;;7.89;100.00;99873.75;5044517;28;20021;-74
2022/12/29 09:27:04;;;;;;;20.27;3.38;;;;;;;7.89;100.00;99886.84;5048065;28;20052;-74
2022/12/29 09:29:29;;;;;;;22.27;2.70;;;;;;;7.93;100.00;99896.50;5046683;28;20044;-75
2022/12/29 09:31:54;;;;;;;25.70;3.58;;;;;;;8.01;100.00;99899.22;5048433;28;20043;-74
2022/12/29 09:34:20;;;;;;;25.10;3.38;;;;;;;8.01;100.00;99892.22;5048639;28;20021;-75
2022/12/29 09:36:45;;;;;;;20.23;2.72;;;;;;;8.02;100.00;99907.09;5048849;28;20040;-75
2022/12/29 09:39:12;;;;;;;19.15;3.05;;;;;;;8.07;100.00;99913.28;5046106;28;20029;-73
2022/12/29 09:41:55;;;;;;;23.13;3.28;;;;;;;8.13;100.00;99914.22;5050073;28;20027;-75
2022/12/29 09:44:30;;;;;;;16.15;2.92;;;;;;;8.18;100.00;99907.25;5047487;28;20021;-76
2022/12/29 09:46:57;;;;;;;20.58;2.85;;;;;;;8.21;100.00;99913.41;5043582;28;20037;-73
2022/12/29 09:49:43;;;;;;;25.90;4.05;;;;;;;8.25;100.00;99915.22;5048281;28;20487;-75
2022/12/29 09:52:32;;;;;;;18.80;2.30;;;;;;;8.31;100.00;99934.50;5043572;28;20036;-73
2022/12/29 09:55:04;;;;;;;18.38;2.97;;;;;;;8.35;100.00;99941.53;5050727;28;20047;-74
2022/12/29 09:57:53;;;;;;;30.40;3.90;;;;;;;8.40;100.00;99947.72;5044742;28;20021;-74
2022/12/29 10:00:28;;;;;;;27.70;4.10;;;;;;;8.39;100.00;99957.28;5047738;28;20040;-74
2022/12/29 10:03:02;;;;;;;21.83;3.42;;;;;;;8.43;100.00;99966.94;5043794;28;20500;-73
2022/12/29 10:05:35;;;;;;;17.63;3.83;;;;;;;8.44;100.00;99958.22;5046163;28;20369;-74
2022/12/29 10:08:34;;;;;;;27.15;3.53;;;;;;;8.48;100.00;99971.41;5042908;28;20033;-74
2022/12/29 10:11:12;;;;;;;25.52;3.65;;;;;;;8.52;100.00;99981.97;5047330;28;20364;-74
2022/12/29 10:14:12;;;;;;;25.25;3.63;;;;;;;8.54;100.00;99980.22;5047771;28;20032;-74
2022/12/29 10:16:50;;;;;;;26.83;4.07;;;;;;;8.63;100.00;99984.69;5045749;28;20032;-73
2022/12/29 10:19:40;;;;;;;33.78;5.82;;;;;;;8.84;100.00;99994.50;5051818;28;20540;-73
2022/12/29 10:22:43;;;;;;;23.08;3.97;;;;;;;9.13;100.00;100012.28;5048288;28;20079;-73
2022/12/29 10:25:20;;;;;;;28.13;4.00;;;;;;;9.30;100.00;100009.78;5049566;28;20638;-74
2022/12/29 10:27:50;;;;;;;24.80;3.88;;;;;;;9.11;100.00;100004.41;5049531;28;20025;-75
2022/12/29 10:30:16;;;;;;;29.90;3.90;;;;;;;9.03;100.00;100016.56;5052469;28;20041;-75
2022/12/29 10:33:03;;;;;;;22.38;5.30;;;;;;;8.96;100.00;100014.75;5049882;28;20074;-73
2022/12/29 10:35:38;;;;;;;33.05;4.82;;;;;;;9.06;100.00;100018.31;5048911;28;20029;-73
2022/12/29 10:38:20;;;;;;;27.20;3.58;;;;;;;9.52;100.00;100026.63;5052076;28;20023;-75
2022/12/29 10:40:53;;;;;;;24.60;3.47;;;;;;;9.98;100.00;100031.28;5050274;28;20472;-74
2022/12/29 10:43:28;;;;;;;30.75;3.45;;;;;;;10.11;100.00;100046.25;5054572;28;20051;-75
2022/12/29 10:46:17;;;;;;;23.77;3.33;;;;;;;10.11;100.00;100051.50;5052692;28;20032;-74
2022/12/29 10:48:45;;;;;;;26.80;3.40;;;;;;;10.09;100.00;100050.63;5049677;28;20029;-73
2022/12/29 10:51:27;;;;;;;18.13;2.95;;;;;;;9.95;100.00;100057.56;5056020;28;20033;-72
2022/12/29 10:54:03;;;;;;;20.70;3.35;;;;;;;10.05;100.00;100051.50;5047945;28;20033;-72
2022/12/29 10:56:35;;;;;;;20.88;3.25;;;;;;;10.20;100.00;100057.69;5049760;28;20437;-75
2022/12/29 10:59:21;;;;;;;20.15;3.03;;;;;;;10.40;100.00;100069.22;5049411;28;20036;-74
2022/12/29 11:02:04;;;;;;;22.27;2.80;;;;;;;10.50;100.00;100062.25;5050104;28;20037;-74
2022/12/29 11:04:51;;;;;;;15.65;3.28;;;;;;;10.68;100.00;100068.47;5066371;28;20052;-74
2022/12/29 11:07:18;;;;;;;12.82;2.15;;;;;;;10.78;100.00;100084.31;5047746;28;20035;-73
2022/12/29 11:09:45;;;;;;;18.88;2.83;;;;;;;10.52;100.00;100097.34;5045318;28;20032;-73
2022/12/29 11:12:21;;;;;;;20.95;3.70;;;;;;;10.27;100.00;100086.66;5044972;28;20036;-75
2022/12/29 11:14:47;;;;;;;32.42;3.13;;;;;;;10.10;100.00;100099.69;5047121;28;20025;-74
2022/12/29 11:17:17;;;;;;;14.95;2.38;;;;;;;10.16;100.00;100103.22;5048846;28;20027;-75
2022/12/29 11:19:43;;;;;;;22.23;3.55;;;;;;;10.59;100.00;100108.75;5048808;28;20051;-74
2022/12/29 11:22:24;;;;;;;18.75;3.25;;;;;;;10.92;100.00;100117.66;5050101;28;20496;-76
2022/12/29 11:24:52;;;;;;;13.70;2.03;;;;;;;11.27;100.00;100101.06;5051249;28;20086;-75
2022/12/29 11:27:25;;;;;;;12.48;2.30;;;;;;;11.58;100.00;100109.88;5049305;28;20056;-74
2022/12/29 11:29:53;;;;;;;13.85;2.22;;;;;;;11.30;100.00;100114.28;5050583;28;20461;-77
2022/12/29 11:32:22;;;;;;;9.40;2.03;;;;;;;10.76;100.00;100128.13;5053432;28;20033;-78
2022/12/29 11:34:48;;;;;;;11.77;1.92;;;;;;;10.82;100.00;100110.63;5064880;28;20028;-78
2022/12/29 11:37:38;;;;;;;12.07;2.00;;;;;;;11.11;100.00;100116.00;5048888;28;20036;-76
2022/12/29 11:40:07;;;;;;;10.77;2.00;;;;;;;11.68;100.00;100137.16;5054385;28;20079;-76
2022/12/29 11:42:37;;;;;;;12.55;2.28;;;;;;;11.54;100.00;100134.47;5053009;28;20040;-76
2022/12/29 11:45:19;;;;;;;14.00;2.97;;;;;;;11.21;100.00;100128.28;5050637;28;20033;-76
2022/12/29 11:47:47;;;;;;;14.60;2.55;;;;;;;10.65;100.00;100137.75;5051482;28;20049;-76
2022/12/29 11:50:29;;;;;;;16.50;2.97;;;;;;;10.54;100.00;100136.78;5048021;28;20025;-77
2022/12/29 11:53:25;;;;;;;17.13;2.55;;;;;;;10.99;100.00;100145.78;5045019;28;20021;-77
2022/12/29 11:55:55;;;;;;;11.95;2.83;;;;;;;11.28;100.00;100134.44;5044293;28;20068;-76
2022/12/29 11:58:28;;;;;;;12.23;2.53;;;;;;;10.84;100.00;100137.81;5061726;28;20032;-76
2022/12/29 12:00:56;;;;;;;10.68;1.60;;;;;;;10.76;100.00;100141.28;5057225;28;20064;-77
2022/12/29 12:03:25;;;;;;;9.63;1.98;;;;;;;10.50;100.00;100153.44;5044280;28;20393;-77
2022/12/29 12:06:01;;;;;;;13.73;2.35;;;;;;;10.19;100.00;100158.50;5038345;28;20384;-74
2022/12/29 12:08:30;;;;;;;15.15;1.90;;;;;;;9.98;100.00;100141.66;5050107;28;20048;-77
2022/12/29 12:11:18;;;;;;;20.73;2.47;;;;;;;9.99;100.00;100147.81;5045278;28;20036;-75
2022/12/29 12:14:00;;;;;;;19.70;3.00;;;;;;;9.83;100.00;100136.31;5063116;28;20036;-75
2022/12/29 12:16:37;;;;;;;22.63;2.75;;;;;;;9.70;100.00;100138.81;5055420;28;20444;-75
2022/12/29 12:19:33;;;;;;;21.55;2.90;;;;;;;9.72;100.00;100154.59;5060525;28;20122;-75